sensor_id;sensor_type;location;lat;lon;timestamp;temperature;humidity
11107;DHT22;5607;48.302;14.294;2023-03-13T00:01:30;6.50;1.00
11107;DHT22;5607;48.302;14.294;2023-03-13T00:04:19;6.40;12.50
11107;DHT22;5607;48.302;14.294;2023-03-13T00:07:06;6.40;9.30
11107;DHT22;5607;48.302;14.294;2023-03-13T00:09:53;6.40;16.30
11107;DHT22;5607;48.302;14.294;2023-03-13T00:12:39;6.50;17.10
11107;DHT22;5607;48.302;14.294;2023-03-13T00:15:26;6.50;20.40
11107;DHT22;5607;48.302;14.294;2023-03-13T00:18:15;6.40;16.10
11107;DHT22;5607;48.302;14.294;2023-03-13T00:21:05;6.40;23.20
11107;DHT22;5607;48.302;14.294;2023-03-13T00:23:53;6.30;23.30
11107;DHT22;5607;48.302;14.294;2023-03-13T00:26:40;6.40;34.60
11107;DHT22;5607;48.302;14.294;2023-03-13T00:29:28;6.30;38.30
11107;DHT22;5607;48.302;14.294;2023-03-13T00:32:16;6.30;49.00
11107;DHT22;5607;48.302;14.294;2023-03-13T00:35:02;6.20;58.50
11107;DHT22;5607;48.302;14.294;2023-03-13T00:37:49;6.20;61.20
11107;DHT22;5607;48.302;14.294;2023-03-13T00:40:35;6.10;75.60
11107;DHT22;5607;48.302;14.294;2023-03-13T00:43:23;6.10;76.70
11107;DHT22;5607;48.302;14.294;2023-03-13T00:46:10;6.10;80.00
11107;DHT22;5607;48.302;14.294;2023-03-13T00:48:57;6.10;78.20
11107;DHT22;5607;48.302;14.294;2023-03-13T00:51:44;6.10;79.20
11107;DHT22;5607;48.302;14.294;2023-03-13T00:54:33;6.20;77.90
11107;DHT22;5607;48.302;14.294;2023-03-13T00:57:20;6.10;77.80
11107;DHT22;5607;48.302;14.294;2023-03-13T01:00:06;6.00;85.50
11107;DHT22;5607;48.302;14.294;2023-03-13T01:02:53;6.00;90.00
11107;DHT22;5607;48.302;14.294;2023-03-13T01:05:40;6.00;95.60
11107;DHT22;5607;48.302;14.294;2023-03-13T01:08:27;6.00;89.30
11107;DHT22;5607;48.302;14.294;2023-03-13T01:11:33;6.00;88.00
11107;DHT22;5607;48.302;14.294;2023-03-13T01:14:22;5.90;93.30
11107;DHT22;5607;48.302;14.294;2023-03-13T01:17:08;6.00;90.90
11107;DHT22;5607;48.302;14.294;2023-03-13T01:19:55;6.00;82.70
11107;DHT22;5607;48.302;14.294;2023-03-13T01:22:42;5.90;86.60
11107;DHT22;5607;48.302;14.294;2023-03-13T01:25:29;5.90;94.40
11107;DHT22;5607;48.302;14.294;2023-03-13T01:28:15;5.80;99.90
11107;DHT22;5607;48.302;14.294;2023-03-13T01:31:12;5.90;99.90
11107;DHT22;5607;48.302;14.294;2023-03-13T01:34:01;5.80;99.90
11107;DHT22;5607;48.302;14.294;2023-03-13T01:36:49;5.80;99.90
11107;DHT22;5607;48.302;14.294;2023-03-13T01:39:37;5.80;99.90
11107;DHT22;5607;48.302;14.294;2023-03-13T01:42:24;5.80;99.90
11107;DHT22;5607;48.302;14.294;2023-03-13T01:51:44;5.70;99.90
11107;DHT22;5607;48.302;14.294;2023-03-13T01:57:33;5.60;99.90
11107;DHT22;5607;48.302;14.294;2023-03-13T02:00:23;5.60;99.90
11107;DHT22;5607;48.302;14.294;2023-03-13T02:03:13;5.50;99.90
11107;DHT22;5607;48.302;14.294;2023-03-13T02:06:03;5.50;99.90
11107;DHT22;5607;48.302;14.294;2023-03-13T02:08:55;5.60;99.90
11107;DHT22;5607;48.302;14.294;2023-03-13T02:11:47;5.60;99.90
11107;DHT22;5607;48.302;14.294;2023-03-13T02:14:38;5.50;99.90
11107;DHT22;5607;48.302;14.294;2023-03-13T02:17:28;5.50;99.90
11107;DHT22;5607;48.302;14.294;2023-03-13T02:20:17;5.50;99.90
11107;DHT22;5607;48.302;14.294;2023-03-13T02:26:00;5.40;99.90
11107;DHT22;5607;48.302;14.294;2023-03-13T02:28:48;5.40;99.90
11107;DHT22;5607;48.302;14.294;2023-03-13T02:31:35;5.50;99.90
11107;DHT22;5607;48.302;14.294;2023-03-13T02:34:23;5.50;99.90
11107;DHT22;5607;48.302;14.294;2023-03-13T02:37:12;5.40;99.90
11107;DHT22;5607;48.302;14.294;2023-03-13T02:40:01;5.40;99.90
11107;DHT22;5607;48.302;14.294;2023-03-13T02:42:51;5.30;99.90
11107;DHT22;5607;48.302;14.294;2023-03-13T02:45:40;5.30;99.90
11107;DHT22;5607;48.302;14.294;2023-03-13T02:48:29;5.30;99.90
11107;DHT22;5607;48.302;14.294;2023-03-13T02:54:11;5.20;99.90
11107;DHT22;5607;48.302;14.294;2023-03-13T02:57:03;5.20;99.90
11107;DHT22;5607;48.302;14.294;2023-03-13T02:59:50;5.10;99.90
11107;DHT22;5607;48.302;14.294;2023-03-13T03:02:37;5.20;99.90
11107;DHT22;5607;48.302;14.294;2023-03-13T03:05:24;5.10;99.90
11107;DHT22;5607;48.302;14.294;2023-03-13T03:08:10;5.10;99.90
11107;DHT22;5607;48.302;14.294;2023-03-13T03:10:57;5.10;99.90
11107;DHT22;5607;48.302;14.294;2023-03-13T03:13:44;5.10;99.90
11107;DHT22;5607;48.302;14.294;2023-03-13T03:16:31;5.00;99.90
11107;DHT22;5607;48.302;14.294;2023-03-13T03:19:17;5.00;99.90
11107;DHT22;5607;48.302;14.294;2023-03-13T03:22:04;5.00;99.90
11107;DHT22;5607;48.302;14.294;2023-03-13T03:24:50;5.00;99.90
11107;DHT22;5607;48.302;14.294;2023-03-13T03:27:37;5.00;99.90
11107;DHT22;5607;48.302;14.294;2023-03-13T03:30:24;4.90;99.90
11107;DHT22;5607;48.302;14.294;2023-03-13T03:33:10;4.80;99.90
11107;DHT22;5607;48.302;14.294;2023-03-13T03:36:01;4.90;99.90
11107;DHT22;5607;48.302;14.294;2023-03-13T03:38:50;4.90;99.90
11107;DHT22;5607;48.302;14.294;2023-03-13T03:41:37;5.00;99.90
11107;DHT22;5607;48.302;14.294;2023-03-13T03:44:24;5.00;99.90
11107;DHT22;5607;48.302;14.294;2023-03-13T03:47:10;5.10;99.90
11107;DHT22;5607;48.302;14.294;2023-03-13T03:49:57;5.10;99.90
11107;DHT22;5607;48.302;14.294;2023-03-13T03:52:44;5.10;99.90
11107;DHT22;5607;48.302;14.294;2023-03-13T03:55:31;5.10;99.90
11107;DHT22;5607;48.302;14.294;2023-03-13T03:58:17;5.10;99.90
11107;DHT22;5607;48.302;14.294;2023-03-13T04:01:04;5.20;99.90
11107;DHT22;5607;48.302;14.294;2023-03-13T04:03:51;5.30;99.90
11107;DHT22;5607;48.302;14.294;2023-03-13T04:06:37;5.30;99.90
11107;DHT22;5607;48.302;14.294;2023-03-13T04:09:24;5.30;99.90
11107;DHT22;5607;48.302;14.294;2023-03-13T04:12:11;5.20;99.90
11107;DHT22;5607;48.302;14.294;2023-03-13T04:14:57;5.30;99.90
11107;DHT22;5607;48.302;14.294;2023-03-13T04:17:44;5.30;99.90
11107;DHT22;5607;48.302;14.294;2023-03-13T04:20:30;5.30;99.90
11107;DHT22;5607;48.302;14.294;2023-03-13T04:23:17;5.30;99.90
11107;DHT22;5607;48.302;14.294;2023-03-13T04:26:03;5.40;99.90
11107;DHT22;5607;48.302;14.294;2023-03-13T04:28:50;5.40;99.90
11107;DHT22;5607;48.302;14.294;2023-03-13T04:31:36;5.40;99.90
11107;DHT22;5607;48.302;14.294;2023-03-13T04:34:23;5.40;99.90
11107;DHT22;5607;48.302;14.294;2023-03-13T04:37:09;5.30;99.90
11107;DHT22;5607;48.302;14.294;2023-03-13T04:39:56;5.30;99.90
11107;DHT22;5607;48.302;14.294;2023-03-13T04:42:43;5.30;99.90
11107;DHT22;5607;48.302;14.294;2023-03-13T04:45:30;5.20;99.90
11107;DHT22;5607;48.302;14.294;2023-03-13T04:48:16;5.20;99.90
11107;DHT22;5607;48.302;14.294;2023-03-13T04:51:03;5.20;99.90
11107;DHT22;5607;48.302;14.294;2023-03-13T04:53:50;5.30;99.90
11107;DHT22;5607;48.302;14.294;2023-03-13T04:56:36;5.20;99.90
11107;DHT22;5607;48.302;14.294;2023-03-13T04:59:23;5.20;99.90
11107;DHT22;5607;48.302;14.294;2023-03-13T05:02:11;5.20;99.90
11107;DHT22;5607;48.302;14.294;2023-03-13T05:04:58;5.30;99.90
11107;DHT22;5607;48.302;14.294;2023-03-13T05:07:44;5.40;99.90
11107;DHT22;5607;48.302;14.294;2023-03-13T05:10:31;5.30;99.90
11107;DHT22;5607;48.302;14.294;2023-03-13T05:13:17;5.40;99.90
11107;DHT22;5607;48.302;14.294;2023-03-13T05:16:04;5.40;99.90
11107;DHT22;5607;48.302;14.294;2023-03-13T05:18:51;5.50;99.90
11107;DHT22;5607;48.302;14.294;2023-03-13T05:21:39;5.60;99.90
11107;DHT22;5607;48.302;14.294;2023-03-13T05:24:25;5.60;99.90
11107;DHT22;5607;48.302;14.294;2023-03-13T05:27:12;5.70;99.90
11107;DHT22;5607;48.302;14.294;2023-03-13T05:29:58;5.80;99.90
11107;DHT22;5607;48.302;14.294;2023-03-13T05:32:45;5.70;99.90
11107;DHT22;5607;48.302;14.294;2023-03-13T05:35:31;5.70;99.90
11107;DHT22;5607;48.302;14.294;2023-03-13T05:38:18;5.80;99.90
11107;DHT22;5607;48.302;14.294;2023-03-13T05:41:05;5.80;99.90
11107;DHT22;5607;48.302;14.294;2023-03-13T05:43:51;5.80;99.90
11107;DHT22;5607;48.302;14.294;2023-03-13T05:46:38;5.80;99.90
11107;DHT22;5607;48.302;14.294;2023-03-13T05:49:24;5.80;99.90
11107;DHT22;5607;48.302;14.294;2023-03-13T05:52:11;5.90;99.90
11107;DHT22;5607;48.302;14.294;2023-03-13T05:54:57;5.90;99.90
11107;DHT22;5607;48.302;14.294;2023-03-13T05:57:44;6.00;99.90
11107;DHT22;5607;48.302;14.294;2023-03-13T06:00:32;6.00;92.70
11107;DHT22;5607;48.302;14.294;2023-03-13T06:03:18;6.00;74.40
11107;DHT22;5607;48.302;14.294;2023-03-13T06:06:05;6.10;89.10
11107;DHT22;5607;48.302;14.294;2023-03-13T06:08:51;6.10;88.80
11107;DHT22;5607;48.302;14.294;2023-03-13T06:11:38;6.10;77.30
11107;DHT22;5607;48.302;14.294;2023-03-13T06:14:25;6.10;84.30
11107;DHT22;5607;48.302;14.294;2023-03-13T06:17:12;6.10;99.90
11107;DHT22;5607;48.302;14.294;2023-03-13T06:19:58;6.20;99.90
11107;DHT22;5607;48.302;14.294;2023-03-13T06:22:47;6.30;96.30
11107;DHT22;5607;48.302;14.294;2023-03-13T06:25:34;6.30;81.60
11107;DHT22;5607;48.302;14.294;2023-03-13T06:28:21;6.40;79.60
11107;DHT22;5607;48.302;14.294;2023-03-13T06:31:09;6.40;79.80
11107;DHT22;5607;48.302;14.294;2023-03-13T06:33:56;6.50;67.80
11107;DHT22;5607;48.302;14.294;2023-03-13T06:36:42;6.60;52.30
11107;DHT22;5607;48.302;14.294;2023-03-13T06:39:30;6.70;54.70
11107;DHT22;5607;48.302;14.294;2023-03-13T06:42:16;6.70;41.80
11107;DHT22;5607;48.302;14.294;2023-03-13T06:45:03;6.80;35.50
11107;DHT22;5607;48.302;14.294;2023-03-13T06:47:50;6.90;35.00
11107;DHT22;5607;48.302;14.294;2023-03-13T06:50:37;6.90;33.40
11107;DHT22;5607;48.302;14.294;2023-03-13T06:53:24;7.00;27.60
11107;DHT22;5607;48.302;14.294;2023-03-13T06:56:11;7.10;17.90
11107;DHT22;5607;48.302;14.294;2023-03-13T06:58:58;7.20;15.30
11107;DHT22;5607;48.302;14.294;2023-03-13T07:01:44;7.30;8.30
11107;DHT22;5607;48.302;14.294;2023-03-13T07:04:31;7.40;5.60
11107;DHT22;5607;48.302;14.294;2023-03-13T07:07:17;7.50;1.40
11107;DHT22;5607;48.302;14.294;2023-03-13T07:10:04;7.60;1.00
11107;DHT22;5607;48.302;14.294;2023-03-13T07:12:51;7.80;1.00
11107;DHT22;5607;48.302;14.294;2023-03-13T07:15:37;7.80;1.00
11107;DHT22;5607;48.302;14.294;2023-03-13T07:18:24;7.90;1.00
11107;DHT22;5607;48.302;14.294;2023-03-13T07:21:11;8.00;1.00
11107;DHT22;5607;48.302;14.294;2023-03-13T07:23:58;8.10;1.00
11107;DHT22;5607;48.302;14.294;2023-03-13T07:26:45;8.20;1.00
11107;DHT22;5607;48.302;14.294;2023-03-13T07:29:31;8.30;1.00
11107;DHT22;5607;48.302;14.294;2023-03-13T07:32:18;8.30;1.00
11107;DHT22;5607;48.302;14.294;2023-03-13T07:35:04;8.30;1.00
11107;DHT22;5607;48.302;14.294;2023-03-13T07:37:51;8.30;1.00
11107;DHT22;5607;48.302;14.294;2023-03-13T07:40:38;8.50;1.00
11107;DHT22;5607;48.302;14.294;2023-03-13T07:43:25;8.60;1.00
11107;DHT22;5607;48.302;14.294;2023-03-13T07:46:16;8.70;1.00
11107;DHT22;5607;48.302;14.294;2023-03-13T07:49:04;8.80;1.00
11107;DHT22;5607;48.302;14.294;2023-03-13T07:51:51;9.00;1.00
11107;DHT22;5607;48.302;14.294;2023-03-13T07:54:37;9.10;1.00
11107;DHT22;5607;48.302;14.294;2023-03-13T07:57:24;9.20;1.00
11107;DHT22;5607;48.302;14.294;2023-03-13T08:00:11;9.30;1.00
11107;DHT22;5607;48.302;14.294;2023-03-13T08:03:01;9.20;1.00
11107;DHT22;5607;48.302;14.294;2023-03-13T08:05:59;9.30;1.00
11107;DHT22;5607;48.302;14.294;2023-03-13T08:08:47;9.30;1.00
11107;DHT22;5607;48.302;14.294;2023-03-13T08:11:33;9.40;1.00
11107;DHT22;5607;48.302;14.294;2023-03-13T08:14:21;9.40;1.00
11107;DHT22;5607;48.302;14.294;2023-03-13T08:17:07;9.50;1.00
11107;DHT22;5607;48.302;14.294;2023-03-13T08:19:54;9.40;1.00
11107;DHT22;5607;48.302;14.294;2023-03-13T08:22:40;9.50;1.00
11107;DHT22;5607;48.302;14.294;2023-03-13T08:25:27;9.60;1.00
11107;DHT22;5607;48.302;14.294;2023-03-13T08:28:13;9.80;1.00
11107;DHT22;5607;48.302;14.294;2023-03-13T08:31:10;10.00;1.00
11107;DHT22;5607;48.302;14.294;2023-03-13T08:33:58;10.20;1.00
11107;DHT22;5607;48.302;14.294;2023-03-13T08:36:45;10.40;1.00
11107;DHT22;5607;48.302;14.294;2023-03-13T08:39:32;10.50;1.00
11107;DHT22;5607;48.302;14.294;2023-03-13T08:42:18;10.50;1.00
11107;DHT22;5607;48.302;14.294;2023-03-13T08:45:05;10.70;1.00
11107;DHT22;5607;48.302;14.294;2023-03-13T08:47:52;10.70;1.00
11107;DHT22;5607;48.302;14.294;2023-03-13T08:50:39;10.70;1.00
11107;DHT22;5607;48.302;14.294;2023-03-13T08:53:25;10.90;1.00
11107;DHT22;5607;48.302;14.294;2023-03-13T08:56:13;11.00;1.00
11107;DHT22;5607;48.302;14.294;2023-03-13T08:59:03;10.80;1.00
11107;DHT22;5607;48.302;14.294;2023-03-13T09:01:50;10.80;1.00
11107;DHT22;5607;48.302;14.294;2023-03-13T09:04:37;10.80;1.00
11107;DHT22;5607;48.302;14.294;2023-03-13T09:07:23;10.80;1.00
11107;DHT22;5607;48.302;14.294;2023-03-13T09:10:10;10.70;1.00
11107;DHT22;5607;48.302;14.294;2023-03-13T09:12:57;10.60;1.00
11107;DHT22;5607;48.302;14.294;2023-03-13T09:15:43;10.60;1.00
11107;DHT22;5607;48.302;14.294;2023-03-13T09:18:31;10.60;1.00
11107;DHT22;5607;48.302;14.294;2023-03-13T09:21:19;10.50;1.00
11107;DHT22;5607;48.302;14.294;2023-03-13T09:24:07;10.50;1.00
11107;DHT22;5607;48.302;14.294;2023-03-13T09:26:53;10.60;1.00
11107;DHT22;5607;48.302;14.294;2023-03-13T09:29:40;10.70;1.00
11107;DHT22;5607;48.302;14.294;2023-03-13T09:32:27;10.70;1.00
11107;DHT22;5607;48.302;14.294;2023-03-13T09:35:14;10.80;1.00
11107;DHT22;5607;48.302;14.294;2023-03-13T09:38:01;10.70;1.00
11107;DHT22;5607;48.302;14.294;2023-03-13T09:40:48;10.80;1.00
11107;DHT22;5607;48.302;14.294;2023-03-13T09:43:45;10.90;1.00
11107;DHT22;5607;48.302;14.294;2023-03-13T09:46:39;11.10;99.90
11107;DHT22;5607;48.302;14.294;2023-03-13T09:49:52;11.10;99.90
11107;DHT22;5607;48.302;14.294;2023-03-13T09:52:42;11.30;99.90
11107;DHT22;5607;48.302;14.294;2023-03-13T09:55:30;11.40;99.90
11107;DHT22;5607;48.302;14.294;2023-03-13T09:58:23;11.50;99.90
11107;DHT22;5607;48.302;14.294;2023-03-13T10:01:13;11.50;99.90
11107;DHT22;5607;48.302;14.294;2023-03-13T10:04:24;11.70;99.90
11107;DHT22;5607;48.302;14.294;2023-03-13T10:07:15;11.90;99.90
11107;DHT22;5607;48.302;14.294;2023-03-13T10:10:02;12.20;99.90
11107;DHT22;5607;48.302;14.294;2023-03-13T10:12:55;12.20;99.90
11107;DHT22;5607;48.302;14.294;2023-03-13T10:15:55;12.40;99.90
11107;DHT22;5607;48.302;14.294;2023-03-13T10:18:44;12.50;99.90
11107;DHT22;5607;48.302;14.294;2023-03-13T10:21:36;12.50;99.90
11107;DHT22;5607;48.302;14.294;2023-03-13T10:24:35;12.50;99.90
11107;DHT22;5607;48.302;14.294;2023-03-13T10:27:26;12.30;99.90
11107;DHT22;5607;48.302;14.294;2023-03-13T10:30:23;12.00;99.90
11107;DHT22;5607;48.302;14.294;2023-03-13T10:36:10;11.90;99.90
11107;DHT22;5607;48.302;14.294;2023-03-13T10:38:58;11.90;99.90
11107;DHT22;5607;48.302;14.294;2023-03-13T10:41:45;11.90;99.90
11107;DHT22;5607;48.302;14.294;2023-03-13T10:44:33;12.10;99.90
11107;DHT22;5607;48.302;14.294;2023-03-13T10:47:20;12.30;99.90
11107;DHT22;5607;48.302;14.294;2023-03-13T10:50:07;12.40;99.90
11107;DHT22;5607;48.302;14.294;2023-03-13T10:53:23;12.50;99.90
11107;DHT22;5607;48.302;14.294;2023-03-13T10:56:11;12.70;99.90
11107;DHT22;5607;48.302;14.294;2023-03-13T10:58:59;12.90;99.90
11107;DHT22;5607;48.302;14.294;2023-03-13T11:01:47;12.90;99.90
11107;DHT22;5607;48.302;14.294;2023-03-13T11:04:36;13.00;99.90
11107;DHT22;5607;48.302;14.294;2023-03-13T11:07:31;13.00;99.90
11107;DHT22;5607;48.302;14.294;2023-03-13T11:13:09;13.10;99.90
11107;DHT22;5607;48.302;14.294;2023-03-13T11:16:28;13.10;99.90
11107;DHT22;5607;48.302;14.294;2023-03-13T11:19:36;13.00;99.90
11107;DHT22;5607;48.302;14.294;2023-03-13T11:22:48;12.80;99.90
11107;DHT22;5607;48.302;14.294;2023-03-13T11:25:56;13.00;99.90
11107;DHT22;5607;48.302;14.294;2023-03-13T11:32:02;13.20;99.90
11107;DHT22;5607;48.302;14.294;2023-03-13T11:34:57;13.40;99.90
11107;DHT22;5607;48.302;14.294;2023-03-13T11:37:49;13.50;99.90
11107;DHT22;5607;48.302;14.294;2023-03-13T11:46:55;13.70;99.90
11107;DHT22;5607;48.302;14.294;2023-03-13T12:01:49;15.00;99.90
11107;DHT22;5607;48.302;14.294;2023-03-13T12:04:42;15.10;99.90
11107;DHT22;5607;48.302;14.294;2023-03-13T12:07:42;15.10;99.90
11107;DHT22;5607;48.302;14.294;2023-03-13T12:10:37;15.10;99.90
11107;DHT22;5607;48.302;14.294;2023-03-13T12:13:34;15.10;99.90
11107;DHT22;5607;48.302;14.294;2023-03-13T12:16:30;15.20;99.90
11107;DHT22;5607;48.302;14.294;2023-03-13T12:19:28;15.20;99.90
11107;DHT22;5607;48.302;14.294;2023-03-13T12:22:23;15.30;99.90
11107;DHT22;5607;48.302;14.294;2023-03-13T12:25:23;15.40;99.90
11107;DHT22;5607;48.302;14.294;2023-03-13T12:31:24;15.60;99.90
11107;DHT22;5607;48.302;14.294;2023-03-13T12:34:19;15.70;99.90
11107;DHT22;5607;48.302;14.294;2023-03-13T12:37:32;15.70;99.90
11107;DHT22;5607;48.302;14.294;2023-03-13T12:40:34;15.80;99.90
11107;DHT22;5607;48.302;14.294;2023-03-13T12:43:30;15.70;99.90
11107;DHT22;5607;48.302;14.294;2023-03-13T12:49:53;15.70;99.90
11107;DHT22;5607;48.302;14.294;2023-03-13T12:56:20;15.80;99.90
11107;DHT22;5607;48.302;14.294;2023-03-13T13:00:00;15.80;99.90
11107;DHT22;5607;48.302;14.294;2023-03-13T13:02:45;15.80;99.90
11107;DHT22;5607;48.302;14.294;2023-03-13T13:05:32;15.80;99.90
11107;DHT22;5607;48.302;14.294;2023-03-13T13:08:23;15.80;99.90
11107;DHT22;5607;48.302;14.294;2023-03-13T13:11:54;15.90;99.90
11107;DHT22;5607;48.302;14.294;2023-03-13T13:20:24;16.30;99.90
11107;DHT22;5607;48.302;14.294;2023-03-13T13:23:24;16.30;99.90
11107;DHT22;5607;48.302;14.294;2023-03-13T13:32:06;16.50;99.90
11107;DHT22;5607;48.302;14.294;2023-03-13T13:35:04;16.70;99.90
11107;DHT22;5607;48.302;14.294;2023-03-13T13:47:18;16.90;99.90
11107;DHT22;5607;48.302;14.294;2023-03-13T13:50:20;17.20;99.90
11107;DHT22;5607;48.302;14.294;2023-03-13T13:53:26;17.30;99.90
11107;DHT22;5607;48.302;14.294;2023-03-13T14:08:01;16.60;99.90
11107;DHT22;5607;48.302;14.294;2023-03-13T14:14:19;16.90;99.90
11107;DHT22;5607;48.302;14.294;2023-03-13T14:17:07;17.00;99.90
11107;DHT22;5607;48.302;14.294;2023-03-13T14:19:55;17.20;99.90
11107;DHT22;5607;48.302;14.294;2023-03-13T14:22:46;17.30;99.90
11107;DHT22;5607;48.302;14.294;2023-03-13T14:28:30;17.10;99.90
11107;DHT22;5607;48.302;14.294;2023-03-13T14:31:20;17.20;99.90
11107;DHT22;5607;48.302;14.294;2023-03-13T14:34:10;17.30;99.90
11107;DHT22;5607;48.302;14.294;2023-03-13T14:36:59;17.30;99.90
11107;DHT22;5607;48.302;14.294;2023-03-13T14:39:46;17.30;99.90
11107;DHT22;5607;48.302;14.294;2023-03-13T14:42:40;17.30;99.90
11107;DHT22;5607;48.302;14.294;2023-03-13T14:45:34;17.30;99.90
11107;DHT22;5607;48.302;14.294;2023-03-13T14:48:29;17.20;99.90
11107;DHT22;5607;48.302;14.294;2023-03-13T14:51:20;17.20;99.90
11107;DHT22;5607;48.302;14.294;2023-03-13T14:54:29;17.10;99.90
11107;DHT22;5607;48.302;14.294;2023-03-13T14:57:17;17.00;99.90
11107;DHT22;5607;48.302;14.294;2023-03-13T15:03:26;17.00;99.90
11107;DHT22;5607;48.302;14.294;2023-03-13T15:06:16;17.00;99.90
11107;DHT22;5607;48.302;14.294;2023-03-13T15:09:11;17.00;99.90
11107;DHT22;5607;48.302;14.294;2023-03-13T15:12:00;17.00;99.90
11107;DHT22;5607;48.302;14.294;2023-03-13T15:14:48;16.90;99.90
11107;DHT22;5607;48.302;14.294;2023-03-13T15:17:36;16.90;99.90
11107;DHT22;5607;48.302;14.294;2023-03-13T15:20:23;17.00;99.90
11107;DHT22;5607;48.302;14.294;2023-03-13T15:23:10;16.80;99.90
11107;DHT22;5607;48.302;14.294;2023-03-13T15:26:00;16.60;99.90
11107;DHT22;5607;48.302;14.294;2023-03-13T15:28:47;16.50;99.90
11107;DHT22;5607;48.302;14.294;2023-03-13T15:31:33;16.40;99.90
11107;DHT22;5607;48.302;14.294;2023-03-13T15:34:20;16.30;99.90
11107;DHT22;5607;48.302;14.294;2023-03-13T15:37:11;16.30;99.90
11107;DHT22;5607;48.302;14.294;2023-03-13T15:39:58;16.20;99.90
11107;DHT22;5607;48.302;14.294;2023-03-13T15:42:45;16.20;99.90
11107;DHT22;5607;48.302;14.294;2023-03-13T15:45:31;16.10;99.90
11107;DHT22;5607;48.302;14.294;2023-03-13T15:48:22;16.00;99.90
11107;DHT22;5607;48.302;14.294;2023-03-13T15:51:12;16.00;99.90
11107;DHT22;5607;48.302;14.294;2023-03-13T15:54:00;16.00;99.90
11107;DHT22;5607;48.302;14.294;2023-03-13T15:56:46;16.00;99.90
11107;DHT22;5607;48.302;14.294;2023-03-13T15:59:33;16.00;99.90
11107;DHT22;5607;48.302;14.294;2023-03-13T16:02:21;16.00;99.90
11107;DHT22;5607;48.302;14.294;2023-03-13T16:05:09;15.90;99.90
11107;DHT22;5607;48.302;14.294;2023-03-13T16:07:56;15.90;99.90
11107;DHT22;5607;48.302;14.294;2023-03-13T16:10:43;15.70;99.90
11107;DHT22;5607;48.302;14.294;2023-03-13T16:13:30;15.70;99.90
11107;DHT22;5607;48.302;14.294;2023-03-13T16:19:05;15.40;99.90
11107;DHT22;5607;48.302;14.294;2023-03-13T16:21:54;15.30;99.90
11107;DHT22;5607;48.302;14.294;2023-03-13T16:24:41;15.20;99.90
11107;DHT22;5607;48.302;14.294;2023-03-13T16:27:28;15.10;99.90
11107;DHT22;5607;48.302;14.294;2023-03-13T16:30:21;15.00;99.90
11107;DHT22;5607;48.302;14.294;2023-03-13T16:33:12;14.90;99.90
11107;DHT22;5607;48.302;14.294;2023-03-13T16:35:59;14.80;99.90
11107;DHT22;5607;48.302;14.294;2023-03-13T16:38:46;14.80;99.90
11107;DHT22;5607;48.302;14.294;2023-03-13T16:41:33;14.70;99.90
11107;DHT22;5607;48.302;14.294;2023-03-13T16:44:20;14.60;99.90
11107;DHT22;5607;48.302;14.294;2023-03-13T16:47:13;14.50;99.90
11107;DHT22;5607;48.302;14.294;2023-03-13T16:50:02;14.40;99.90
11107;DHT22;5607;48.302;14.294;2023-03-13T16:53:09;14.30;99.90
11107;DHT22;5607;48.302;14.294;2023-03-13T16:55:57;14.20;99.90
11107;DHT22;5607;48.302;14.294;2023-03-13T16:58:44;14.20;99.90
11107;DHT22;5607;48.302;14.294;2023-03-13T17:01:30;14.10;99.90
11107;DHT22;5607;48.302;14.294;2023-03-13T17:04:17;14.00;99.90
11107;DHT22;5607;48.302;14.294;2023-03-13T17:07:08;13.90;99.90
11107;DHT22;5607;48.302;14.294;2023-03-13T17:10:14;13.80;99.90
11107;DHT22;5607;48.302;14.294;2023-03-13T17:13:01;13.70;99.90
11107;DHT22;5607;48.302;14.294;2023-03-13T17:15:48;13.70;99.90
11107;DHT22;5607;48.302;14.294;2023-03-13T17:18:35;13.60;99.90
11107;DHT22;5607;48.302;14.294;2023-03-13T17:21:23;13.50;99.90
11107;DHT22;5607;48.302;14.294;2023-03-13T17:24:12;13.40;99.90
11107;DHT22;5607;48.302;14.294;2023-03-13T17:26:58;13.40;99.90
11107;DHT22;5607;48.302;14.294;2023-03-13T17:29:45;13.30;99.90
11107;DHT22;5607;48.302;14.294;2023-03-13T17:32:31;13.20;99.90
11107;DHT22;5607;48.302;14.294;2023-03-13T17:35:18;13.10;99.90
11107;DHT22;5607;48.302;14.294;2023-03-13T17:38:07;13.10;99.90
11107;DHT22;5607;48.302;14.294;2023-03-13T17:40:55;13.00;99.90
11107;DHT22;5607;48.302;14.294;2023-03-13T17:43:42;13.00;99.90
11107;DHT22;5607;48.302;14.294;2023-03-13T17:46:30;12.90;99.90
11107;DHT22;5607;48.302;14.294;2023-03-13T17:49:19;12.90;99.90
11107;DHT22;5607;48.302;14.294;2023-03-13T17:52:05;12.80;99.90
11107;DHT22;5607;48.302;14.294;2023-03-13T17:54:54;12.70;99.90
11107;DHT22;5607;48.302;14.294;2023-03-13T17:57:41;12.70;99.90
11107;DHT22;5607;48.302;14.294;2023-03-13T18:00:30;12.70;99.90
11107;DHT22;5607;48.302;14.294;2023-03-13T18:03:17;12.60;99.90
11107;DHT22;5607;48.302;14.294;2023-03-13T18:06:04;12.60;99.90
11107;DHT22;5607;48.302;14.294;2023-03-13T18:08:52;12.60;99.90
11107;DHT22;5607;48.302;14.294;2023-03-13T18:11:40;12.60;99.90
11107;DHT22;5607;48.302;14.294;2023-03-13T18:14:27;12.50;99.90
11107;DHT22;5607;48.302;14.294;2023-03-13T18:17:15;12.50;99.90
11107;DHT22;5607;48.302;14.294;2023-03-13T18:20:05;12.50;99.90
11107;DHT22;5607;48.302;14.294;2023-03-13T18:22:59;12.40;99.90
11107;DHT22;5607;48.302;14.294;2023-03-13T18:25:47;12.40;99.90
11107;DHT22;5607;48.302;14.294;2023-03-13T18:28:34;12.40;99.90
11107;DHT22;5607;48.302;14.294;2023-03-13T18:31:21;12.40;99.90
11107;DHT22;5607;48.302;14.294;2023-03-13T18:34:08;12.40;99.90
11107;DHT22;5607;48.302;14.294;2023-03-13T18:36:55;12.40;99.90
11107;DHT22;5607;48.302;14.294;2023-03-13T18:39:48;12.30;99.90
11107;DHT22;5607;48.302;14.294;2023-03-13T18:42:36;12.30;99.90
11107;DHT22;5607;48.302;14.294;2023-03-13T18:45:23;12.30;99.90
11107;DHT22;5607;48.302;14.294;2023-03-13T18:48:11;12.30;99.90
11107;DHT22;5607;48.302;14.294;2023-03-13T18:50:59;12.30;99.90
11107;DHT22;5607;48.302;14.294;2023-03-13T18:53:46;12.40;99.90
11107;DHT22;5607;48.302;14.294;2023-03-13T18:56:33;12.40;99.90
11107;DHT22;5607;48.302;14.294;2023-03-13T18:59:20;12.40;99.90
11107;DHT22;5607;48.302;14.294;2023-03-13T19:02:15;12.40;99.90
11107;DHT22;5607;48.302;14.294;2023-03-13T19:05:03;12.30;99.90
11107;DHT22;5607;48.302;14.294;2023-03-13T19:07:53;12.30;99.90
11107;DHT22;5607;48.302;14.294;2023-03-13T19:10:40;12.30;99.90
11107;DHT22;5607;48.302;14.294;2023-03-13T19:13:26;12.30;99.90
11107;DHT22;5607;48.302;14.294;2023-03-13T19:16:24;12.20;99.90
11107;DHT22;5607;48.302;14.294;2023-03-13T19:19:16;12.10;99.90
11107;DHT22;5607;48.302;14.294;2023-03-13T19:22:07;12.10;99.90
11107;DHT22;5607;48.302;14.294;2023-03-13T19:24:59;12.00;99.90
11107;DHT22;5607;48.302;14.294;2023-03-13T19:27:46;12.00;99.90
11107;DHT22;5607;48.302;14.294;2023-03-13T19:30:33;12.00;99.90
11107;DHT22;5607;48.302;14.294;2023-03-13T19:33:29;11.90;99.90
11107;DHT22;5607;48.302;14.294;2023-03-13T19:36:22;11.90;99.90
11107;DHT22;5607;48.302;14.294;2023-03-13T19:39:11;11.90;99.90